Time;durP1;ratioP1;P1;durP2;ratioP2;P2;SDS_P1;SDS_P2;PMS_P1;PMS_P2;Temp;Humidity;BMP_temperature;BMP_pressure;BME280_temperature;BME280_humidity;BME280_pressure;Samples;Min_cycle;Max_cycle;Signal;HPM_P1;HPM_P2
2021/09/26 00:01:10;;;;;;;;;;;;;;;14.98;91.97;98438.34;1817469;79;20197;-81
2021/09/26 00:03:36;;;;;;;;;;;;;;;15.03;91.83;98440.98;1817757;79;21066;-82
2021/09/26 00:06:01;;;;;;;;;;;;;;;15.08;91.93;98444.44;1817258;79;20168;-81
2021/09/26 00:08:27;;;;;;;;;;;;;;;15.10;91.75;98440.85;1817733;79;20255;-81
2021/09/26 00:10:53;;;;;;;;;;;;;;;15.05;93.65;98440.14;1817260;79;20426;-82
2021/09/26 00:13:18;;;;;;;;;;;;;;;14.98;94.87;98435.06;1817589;79;20658;-81
2021/09/26 00:15:44;;;;;;;;;;;;;;;15.00;93.66;98437.48;1817293;79;21873;-81
2021/09/26 00:18:10;;;;;;;;;;;;;;;15.03;93.91;98439.61;1817507;79;20214;-81
2021/09/26 00:20:36;;;;;;;;;;;;;;;15.05;94.08;98436.86;1821420;78;20212;-81
2021/09/26 00:23:02;;;;;;;;;;;;;;;15.07;93.47;98437.37;1823609;78;20153;-81
2021/09/26 00:25:29;;;;;;;;;;;;;;;15.07;92.82;98431.91;1823326;78;20617;-81
2021/09/26 00:27:55;;;;;;;;;;;;;;;15.03;91.98;98432.23;1824141;78;21201;-81
2021/09/26 00:30:20;;;;;;;;;;;;;;;15.01;91.77;98433.09;1823436;78;20177;-81
2021/09/26 00:32:46;;;;;;;;;;;;;;;15.04;92.81;98437.13;1823548;78;20215;-81
2021/09/26 00:35:12;;;;;;;;;;;;;;;15.03;93.18;98432.23;1823516;78;20227;-82
2021/09/26 00:37:38;;;;;;;;;;;;;;;15.01;94.00;98430.36;1823535;78;20626;-82
2021/09/26 00:40:05;;;;;;;;;;;;;;;15.03;92.50;98430.87;1823606;78;21067;-81
2021/09/26 00:42:30;;;;;;;;;;;;;;;15.03;93.32;98430.06;1823568;78;20133;-81
2021/09/26 00:44:57;;;;;;;;;;;;;;;15.03;93.01;98434.16;1823580;78;20199;-82
2021/09/26 00:47:24;;;;;;;;;;;;;;;15.00;92.92;98432.03;1823973;78;20150;-81
2021/09/26 00:49:51;;;;;;;;;;;;;;;15.00;93.56;98431.48;1823557;78;20137;-81
2021/09/26 00:52:19;;;;;;;;;;;;;;;14.95;91.49;98431.55;1823338;78;21122;-81
2021/09/26 00:54:44;;;;;;;;;;;;;;;14.90;91.55;98435.74;1822201;78;20086;-81
2021/09/26 00:57:10;;;;;;;;;;;;;;;14.93;91.43;98441.40;1824131;78;20160;-81
2021/09/26 00:59:36;;;;;;;;;;;;;;;14.96;92.12;98431.83;1823562;78;20129;-81
2021/09/26 01:02:02;;;;;;;;;;;;;;;14.99;91.76;98431.78;1823234;78;20144;-81
2021/09/26 01:04:28;;;;;;;;;;;;;;;15.05;91.42;98436.05;1823553;78;21265;-81
2021/09/26 01:07:14;;;;;;;;;;;;;;;15.06;91.31;98433.58;1823203;78;20195;-82
2021/09/26 01:09:49;;;;;;;;;;;;;;;15.08;91.22;98433.52;1823521;78;20101;-81
2021/09/26 01:12:37;;;;;;;;;;;;;;;15.07;91.56;98423.72;1823671;78;20089;-82
2021/09/26 01:15:13;;;;;;;;;;;;;;;15.02;91.65;98425.72;1823485;78;20146;-82
2021/09/26 01:17:43;;;;;;;;;;;;;;;14.94;91.92;98425.28;1823309;78;21832;-82
2021/09/26 01:20:41;;;;;;;;;;;;;;;14.98;91.92;98435.62;1823315;78;20131;-81
2021/09/26 01:23:37;;;;;;;;;;;;;;;14.95;93.73;98427.45;1823339;78;20126;-81
2021/09/26 01:26:15;;;;;;;;;;;;;;;14.90;92.21;98431.09;1822262;78;20413;-82
2021/09/26 01:29:00;;;;;;;;;;;;;;;14.82;92.66;98429.59;1823332;78;20212;-82
2021/09/26 01:31:32;;;;;;;;;;;;;;;14.80;91.97;98427.17;1746778;82;21158;-82
2021/09/26 01:33:59;;;;;;;;;;;;;;;14.80;92.75;98427.17;1801120;78;20143;-82
2021/09/26 01:36:39;;;;;;;;;;;;;;;14.79;93.10;98426.92;1823358;78;20146;-81
2021/09/26 01:39:14;;;;;;;;;;;;;;;14.73;91.80;98432.19;1823049;78;20146;-82
2021/09/26 01:41:59;;;;;;;;;;;;;;;14.66;91.58;98431.75;1823398;78;20415;-81
2021/09/26 01:44:29;;;;;;;;;;;;;;;14.65;91.55;98430.13;1823431;78;21861;-81
2021/09/26 01:46:55;;;;;;;;;;;;;;;14.59;91.88;98437.56;1823213;78;21015;-82
2021/09/26 01:49:35;;;;;;;;;;;;;;;14.54;92.34;98434.12;1823705;78;20221;-81
2021/09/26 01:52:01;;;;;;;;;;;;;;;14.51;92.16;98439.59;1821982;78;20181;-81
2021/09/26 01:54:27;;;;;;;;;;;;;;;14.43;94.22;98441.59;1823562;78;20173;-82
2021/09/26 01:56:53;;;;;;;;;;;;;;;14.45;93.20;98431.78;1823424;78;20580;-82
2021/09/26 01:59:20;;;;;;;;;;;;;;;14.39;94.12;98439.20;1823451;78;20204;-81
2021/09/26 02:01:46;;;;;;;;;;;;;;;14.32;92.55;98438.20;1823325;78;20137;-81
2021/09/26 02:04:12;;;;;;;;;;;;;;;14.23;93.64;98444.05;1823582;78;20219;-81
2021/09/26 02:06:38;;;;;;;;;;;;;;;14.17;95.22;98451.22;1823535;78;20160;-81
2021/09/26 02:09:05;;;;;;;;;;;;;;;14.12;94.08;98443.94;1823584;78;21123;-82
2021/09/26 02:11:31;;;;;;;;;;;;;;;14.11;94.05;98447.21;1823476;78;20193;-81
2021/09/26 02:13:57;;;;;;;;;;;;;;;14.10;94.40;98445.59;1823677;78;20154;-81
2021/09/26 02:16:23;;;;;;;;;;;;;;;14.03;95.12;98445.69;1823413;78;20137;-81
2021/09/26 02:18:48;;;;;;;;;;;;;;;13.97;94.37;98447.66;1793950;78;20153;-82
2021/09/26 02:21:14;;;;;;;;;;;;;;;13.95;94.19;98442.24;1823560;78;21110;-81
2021/09/26 02:23:40;;;;;;;;;;;;;;;13.88;94.62;98443.95;1823881;78;20130;-81
2021/09/26 02:26:06;;;;;;;;;;;;;;;13.87;93.45;98445.61;1823575;78;20219;-81
2021/09/26 02:28:32;;;;;;;;;;;;;;;13.87;93.89;98448.33;1823639;78;20216;-82
2021/09/26 02:30:58;;;;;;;;;;;;;;;13.80;93.89;98449.48;1823270;78;20158;-81
2021/09/26 02:33:24;;;;;;;;;;;;;;;13.66;94.79;98453.19;1823475;78;21036;-81
2021/09/26 02:35:50;;;;;;;;;;;;;;;13.57;93.31;98451.64;1823254;78;20176;-82
2021/09/26 02:38:15;;;;;;;;;;;;;;;13.46;93.09;98454.22;1823838;78;20254;-81
2021/09/26 02:40:43;;;;;;;;;;;;;;;13.40;92.71;98448.00;1823297;78;20137;-82
2021/09/26 02:43:30;;;;;;;;;;;;;;;13.37;93.51;98450.50;1823597;78;20126;-82
2021/09/26 02:46:05;;;;;;;;;;;;;;;13.34;94.30;98455.98;1822646;78;21286;-81
2021/09/26 02:48:30;;;;;;;;;;;;;;;13.33;93.83;98458.44;1823713;78;20126;-81
2021/09/26 02:50:57;;;;;;;;;;;;;;;13.30;92.93;98464.44;1793559;78;20180;-81
2021/09/26 02:53:25;;;;;;;;;;;;;;;13.22;94.49;98463.69;1823106;78;20145;-81
2021/09/26 02:55:50;;;;;;;;;;;;;;;13.15;94.57;98465.89;1823183;78;20398;-81
2021/09/26 02:58:16;;;;;;;;;;;;;;;13.08;93.58;98468.97;1823425;78;20570;-81
2021/09/26 03:00:44;;;;;;;;;;;;;;;12.98;93.69;98464.95;1823132;78;20135;-81
2021/09/26 03:03:13;;;;;;;;;;;;;;;12.89;94.11;98470.73;1823683;78;20402;-81
2021/09/26 03:05:40;;;;;;;;;;;;;;;12.81;93.66;98471.33;1823195;78;20525;-81
2021/09/26 03:08:05;;;;;;;;;;;;;;;12.70;93.61;98464.61;1823494;78;20156;-81
2021/09/26 03:10:31;;;;;;;;;;;;;;;12.57;93.94;98470.70;1823225;78;21068;-81
2021/09/26 03:12:57;;;;;;;;;;;;;;;12.48;92.73;98468.86;1824074;78;20152;-81
2021/09/26 03:15:23;;;;;;;;;;;;;;;12.41;92.82;98466.45;1793876;78;20176;-81
2021/09/26 03:17:49;;;;;;;;;;;;;;;12.32;94.29;98466.22;1823519;78;20259;-81
2021/09/26 03:20:15;;;;;;;;;;;;;;;12.30;94.21;98473.00;1823268;78;20724;-81
2021/09/26 03:22:41;;;;;;;;;;;;;;;12.30;94.18;98473.00;1823165;78;21040;-81
2021/09/26 03:25:07;;;;;;;;;;;;;;;12.27;94.32;98468.95;1823591;78;20716;-81
2021/09/26 03:27:33;;;;;;;;;;;;;;;12.27;94.68;98467.59;1823177;78;20147;-81
2021/09/26 03:29:58;;;;;;;;;;;;;;;12.25;94.16;98471.69;1823488;78;20199;-81
2021/09/26 03:32:24;;;;;;;;;;;;;;;12.17;94.66;98463.58;1823463;78;20145;-81
2021/09/26 03:34:50;;;;;;;;;;;;;;;12.11;94.46;98475.00;1823763;78;21035;-81
2021/09/26 03:37:16;;;;;;;;;;;;;;;12.06;94.20;98462.81;1823642;78;20180;-81
2021/09/26 03:39:41;;;;;;;;;;;;;;;12.04;93.16;98477.20;1823557;78;20207;-81
2021/09/26 03:42:07;;;;;;;;;;;;;;;11.99;93.71;98475.88;1824013;78;20243;-81
2021/09/26 03:44:33;;;;;;;;;;;;;;;12.02;93.81;98477.22;1823983;78;20157;-81
2021/09/26 03:46:59;;;;;;;;;;;;;;;12.01;94.90;98484.55;1823678;78;21087;-81
2021/09/26 03:49:25;;;;;;;;;;;;;;;12.02;94.54;98484.81;1823677;78;20192;-81
2021/09/26 03:51:50;;;;;;;;;;;;;;;12.04;95.68;98483.17;1823453;78;20267;-81
2021/09/26 03:54:17;;;;;;;;;;;;;;;12.05;95.64;98488.36;1823633;78;20559;-81
2021/09/26 03:56:43;;;;;;;;;;;;;;;12.04;94.42;98490.77;1823531;78;20421;-81
2021/09/26 03:59:12;;;;;;;;;;;;;;;12.02;95.51;98490.80;1823563;78;21136;-81
2021/09/26 04:01:39;;;;;;;;;;;;;;;11.99;95.80;98485.38;1823321;78;20457;-81
2021/09/26 04:04:05;;;;;;;;;;;;;;;11.97;97.38;98488.12;1823562;78;20185;-81
2021/09/26 04:06:31;;;;;;;;;;;;;;;11.97;97.47;98481.33;1793931;78;20165;-81
2021/09/26 04:08:57;;;;;;;;;;;;;;;11.98;97.14;98487.84;1823750;78;20239;-81
2021/09/26 04:11:22;;;;;;;;;;;;;;;12.01;96.52;98484.55;1823682;78;21036;-81
2021/09/26 04:13:48;;;;;;;;;;;;;;;12.06;96.19;98483.73;1823693;78;20180;-81
2021/09/26 04:16:14;;;;;;;;;;;;;;;12.07;95.51;98486.72;1823642;78;20199;-81
2021/09/26 04:18:40;;;;;;;;;;;;;;;12.05;96.44;98480.20;1823665;78;20180;-81
2021/09/26 04:21:05;;;;;;;;;;;;;;;12.03;97.07;98485.63;1823180;78;20176;-81
2021/09/26 04:23:32;;;;;;;;;;;;;;;12.08;96.55;98488.34;1823623;78;21147;-82
2021/09/26 04:25:58;;;;;;;;;;;;;;;12.06;96.82;98500.84;1823341;78;20436;-81
2021/09/26 04:28:23;;;;;;;;;;;;;;;12.11;96.27;98495.38;1823700;78;20636;-81
2021/09/26 04:30:49;;;;;;;;;;;;;;;12.08;96.38;98497.30;1793711;78;20468;-81
2021/09/26 04:33:15;;;;;;;;;;;;;;;12.07;95.87;98498.94;1823622;78;20697;-81
2021/09/26 04:35:41;;;;;;;;;;;;;;;12.04;95.92;98486.70;1823351;78;21119;-81
2021/09/26 04:38:07;;;;;;;;;;;;;;;12.06;95.59;98494.59;1823225;78;20176;-81
2021/09/26 04:40:33;;;;;;;;;;;;;;;12.01;96.19;98496.77;1823564;78;20158;-81
2021/09/26 04:42:59;;;;;;;;;;;;;;;11.96;95.57;98500.85;1823602;78;20199;-81
2021/09/26 04:45:25;;;;;;;;;;;;;;;11.91;96.41;98498.17;1823594;78;20130;-81
2021/09/26 04:47:50;;;;;;;;;;;;;;;11.83;95.21;98500.91;1823324;78;21108;-81
2021/09/26 04:50:16;;;;;;;;;;;;;;;11.76;96.23;98503.06;1823525;78;20243;-81
2021/09/26 04:52:42;;;;;;;;;;;;;;;11.73;95.97;98504.17;1823270;78;20168;-81
2021/09/26 04:55:08;;;;;;;;;;;;;;;11.72;96.75;98497.93;1823426;78;20180;-81
2021/09/26 04:57:34;;;;;;;;;;;;;;;11.74;96.24;98499.01;1823459;78;20126;-82
2021/09/26 05:00:00;;;;;;;;;;;;;;;11.77;95.93;98501.97;1823432;78;21037;-81
2021/09/26 05:02:26;;;;;;;;;;;;;;;11.81;96.18;98502.28;1823232;78;20164;-81
2021/09/26 05:04:51;;;;;;;;;;;;;;;11.84;96.30;98503.89;1823543;78;20192;-81
2021/09/26 05:07:17;;;;;;;;;;;;;;;11.87;96.30;98501.16;1823653;78;20188;-81
2021/09/26 05:09:43;;;;;;;;;;;;;;;11.87;96.80;98498.44;1823983;78;20417;-81
2021/09/26 05:12:10;;;;;;;;;;;;;;;11.91;96.47;98502.80;1823465;78;21092;-81
2021/09/26 05:14:36;;;;;;;;;;;;;;;11.96;96.82;98504.11;1823471;78;20126;-81
2021/09/26 05:17:02;;;;;;;;;;;;;;;12.00;97.40;98507.92;1823630;78;20188;-81
2021/09/26 05:19:27;;;;;;;;;;;;;;;11.99;97.67;98504.39;1823407;78;20145;-81
2021/09/26 05:21:53;;;;;;;;;;;;;;;12.08;96.72;98512.78;1823274;78;20175;-81
2021/09/26 05:24:19;;;;;;;;;;;;;;;12.13;96.77;98506.80;1823449;78;21958;-81
2021/09/26 05:26:45;;;;;;;;;;;;;;;12.19;96.34;98504.85;1793705;78;20243;-81
2021/09/26 05:29:10;;;;;;;;;;;;;;;12.22;96.04;98508.91;1824034;78;20243;-81
2021/09/26 05:31:38;;;;;;;;;;;;;;;12.26;95.63;98514.07;1823810;78;20148;-81
2021/09/26 05:34:03;;;;;;;;;;;;;;;12.30;95.66;98509.69;1794359;78;20425;-81
2021/09/26 05:36:29;;;;;;;;;;;;;;;12.37;95.55;98512.38;1823515;78;21042;-81
2021/09/26 05:38:55;;;;;;;;;;;;;;;12.39;95.43;98512.09;1823558;78;20274;-81
2021/09/26 05:41:21;;;;;;;;;;;;;;;12.45;95.54;98512.34;1823513;78;20251;-81
2021/09/26 05:43:47;;;;;;;;;;;;;;;12.51;95.26;98521.29;1823635;78;20168;-81
2021/09/26 05:46:13;;;;;;;;;;;;;;;12.47;95.47;98518.84;1823195;78;20216;-81
2021/09/26 05:48:39;;;;;;;;;;;;;;;12.46;95.43;98522.11;1823464;78;21845;-81
2021/09/26 05:51:06;;;;;;;;;;;;;;;12.54;94.62;98522.89;1823105;78;20204;-81
2021/09/26 05:53:32;;;;;;;;;;;;;;;12.49;95.54;98524.30;1823117;78;20150;-81
2021/09/26 05:55:58;;;;;;;;;;;;;;;12.57;95.48;98526.97;1823384;78;20160;-81
2021/09/26 05:58:24;;;;;;;;;;;;;;;12.64;95.87;98532.89;1823473;78;20181;-81
2021/09/26 06:00:50;;;;;;;;;;;;;;;12.80;94.58;98528.98;1793896;78;21053;-81
2021/09/26 06:03:15;;;;;;;;;;;;;;;12.89;95.31;98530.56;1823109;78;20176;-81
2021/09/26 06:05:41;;;;;;;;;;;;;;;13.01;95.03;98526.97;1823287;78;20251;-81
2021/09/26 06:08:07;;;;;;;;;;;;;;;13.15;94.46;98525.20;1823295;78;20128;-81
2021/09/26 06:10:33;;;;;;;;;;;;;;;13.25;94.08;98530.63;1823466;78;20188;-82
2021/09/26 06:12:59;;;;;;;;;;;;;;;13.34;93.92;98526.73;1823381;78;21161;-81
2021/09/26 06:15:25;;;;;;;;;;;;;;;13.43;93.64;98523.66;1823237;78;20406;-81
2021/09/26 06:17:52;;;;;;;;;;;;;;;13.54;93.56;98527.91;1823379;78;20201;-81
2021/09/26 06:20:17;;;;;;;;;;;;;;;13.63;93.25;98528.66;1823661;78;20134;-81
2021/09/26 06:22:43;;;;;;;;;;;;;;;13.76;93.13;98526.62;1794341;78;20139;-81
2021/09/26 06:25:10;;;;;;;;;;;;;;;13.93;93.01;98534.33;1788244;80;21202;-81
2021/09/26 06:27:35;;;;;;;;;;;;;;;14.08;92.63;98536.89;1788236;80;20133;-81
2021/09/26 06:30:03;;;;;;;;;;;;;;;14.26;92.13;98537.48;1759779;80;20186;-81
2021/09/26 06:32:31;;;;;;;;;;;;;;;14.44;90.73;98535.09;1759860;80;20136;-81
2021/09/26 06:34:56;;;;;;;;;;;;;;;14.49;89.05;98530.98;1788253;80;20125;-81
2021/09/26 06:37:22;;;;;;;;;;;;;;;14.46;89.21;98540.56;1788315;80;21860;-81
2021/09/26 06:39:50;;;;;;;;;;;;;;;14.53;89.48;98542.94;1788185;80;20242;-81
2021/09/26 06:42:15;;;;;;;;;;;;;;;14.59;89.23;98538.47;1788205;79;20148;-81
2021/09/26 06:44:41;;;;;;;;;;;;;;;14.73;89.78;98530.38;1788393;80;20250;-81
2021/09/26 06:47:07;;;;;;;;;;;;;;;14.83;89.37;98534.33;1788305;80;20175;-82
2021/09/26 06:49:33;;;;;;;;;;;;;;;15.01;88.26;98533.25;1788267;80;21906;-82
2021/09/26 06:51:59;;;;;;;;;;;;;;;15.40;87.39;98535.65;1788126;80;20163;-81
2021/09/26 06:54:24;;;;;;;;;;;;;;;15.94;86.02;98531.44;1788203;80;20250;-81
2021/09/26 06:56:50;;;;;;;;;;;;;;;16.57;85.83;98531.52;1788325;80;20175;-81
2021/09/26 06:59:16;;;;;;;;;;;;;;;17.39;85.91;98531.86;1788716;80;20182;-81
2021/09/26 07:01:42;;;;;;;;;;;;;;;17.79;83.11;98526.50;1788488;80;21073;-81
2021/09/26 07:04:10;;;;;;;;;;;;;;;17.78;76.19;98526.82;1788838;80;20178;-81
2021/09/26 07:06:36;;;;;;;;;;;;;;;18.61;81.54;98529.92;1788594;80;20152;-81
2021/09/26 07:09:02;;;;;;;;;;;;;;;18.92;74.86;98530.42;1788944;80;20175;-81
2021/09/26 07:11:28;;;;;;;;;;;;;;;19.31;76.71;98533.58;1788495;80;20144;-82
2021/09/26 07:13:53;;;;;;;;;;;;;;;19.85;79.14;98534.56;1788159;80;21054;-82
2021/09/26 07:16:19;;;;;;;;;;;;;;;20.13;75.57;98538.50;1788608;80;20182;-82
2021/09/26 07:18:45;;;;;;;;;;;;;;;20.66;76.62;98531.61;1788237;80;20171;-82
2021/09/26 07:21:13;;;;;;;;;;;;;;;20.96;72.83;98532.39;1789999;79;20254;-82
2021/09/26 07:23:38;;;;;;;;;;;;;;;21.10;73.19;98521.09;1810017;79;20406;-82
2021/09/26 07:26:04;;;;;;;;;;;;;;;21.55;72.08;98530.87;1809943;79;22076;-82
2021/09/26 07:28:31;;;;;;;;;;;;;;;21.77;70.17;98537.13;1809924;79;20719;-82
2021/09/26 07:30:57;;;;;;;;;;;;;;;22.05;67.38;98541.42;1809884;79;20135;-82
2021/09/26 07:33:22;;;;;;;;;;;;;;;22.32;68.15;98535.88;1810173;79;20212;-82
2021/09/26 07:35:49;;;;;;;;;;;;;;;22.89;63.29;98534.92;1810153;79;20209;-82
2021/09/26 07:38:15;;;;;;;;;;;;;;;23.38;64.12;98530.06;1810049;79;21053;-82
2021/09/26 07:40:41;;;;;;;;;;;;;;;24.40;64.98;98543.70;1809921;79;20283;-82
2021/09/26 07:43:07;;;;;;;;;;;;;;;24.61;63.94;98544.81;1810328;79;20196;-82
2021/09/26 07:45:34;;;;;;;;;;;;;;;24.66;55.04;98551.44;1809947;79;20566;-82
2021/09/26 07:47:59;;;;;;;;;;;;;;;25.15;53.20;98541.88;1783022;79;20414;-82
2021/09/26 07:50:26;;;;;;;;;;;;;;;25.39;50.82;98533.88;1809924;79;21225;-82
2021/09/26 07:52:54;;;;;;;;;;;;;;;25.75;50.83;98527.88;1809887;79;20449;-82
2021/09/26 07:55:20;;;;;;;;;;;;;;;26.30;51.71;98526.25;1810050;79;20387;-82
2021/09/26 07:57:46;;;;;;;;;;;;;;;26.66;47.44;98521.52;1809924;79;20666;-82
2021/09/26 08:00:13;;;;;;;;;;;;;;;27.52;53.22;98519.89;1809965;79;20158;-82
2021/09/26 08:02:39;;;;;;;;;;;;;;;27.50;49.39;98520.84;1809936;79;21788;-82
2021/09/26 08:05:05;;;;;;;;;;;;;;;27.13;51.09;98518.81;1809916;79;20139;-82
2021/09/26 08:07:33;;;;;;;;;;;;;;;27.76;51.61;98526.33;1783293;79;20162;-82
2021/09/26 08:09:59;;;;;;;;;;;;;;;28.22;49.90;98523.22;1810041;79;20401;-82
2021/09/26 08:12:25;;;;;;;;;;;;;;;28.72;50.34;98522.83;1810117;79;20150;-82
2021/09/26 08:14:51;;;;;;;;;;;;;;;28.80;47.32;98526.67;1810097;79;20728;-82
2021/09/26 08:17:17;;;;;;;;;;;;;;;29.22;48.93;98523.32;1810039;79;20724;-82
2021/09/26 08:19:43;;;;;;;;;;;;;;;29.52;44.08;98520.89;1783119;79;20160;-82
2021/09/26 08:22:08;;;;;;;;;;;;;;;29.17;43.86;98522.31;1801689;79;20135;-82
2021/09/26 08:24:35;;;;;;;;;;;;;;;28.01;41.13;98523.80;1788403;80;20715;-82
2021/09/26 08:27:01;;;;;;;;;;;;;;;29.22;41.50;98521.13;1760307;80;21091;-83
2021/09/26 08:29:27;;;;;;;;;;;;;;;29.61;38.79;98521.92;1788451;80;20392;-83
2021/09/26 08:31:53;;;;;;;;;;;;;;;30.39;39.90;98524.05;1788465;80;20161;-83
2021/09/26 08:34:19;;;;;;;;;;;;;;;31.27;41.50;98518.93;1788379;80;20156;-83
2021/09/26 08:36:45;;;;;;;;;;;;;;;31.43;35.40;98522.67;1788561;80;20141;-83
2021/09/26 08:39:11;;;;;;;;;;;;;;;31.61;35.46;98516.38;1788259;80;21143;-82
2021/09/26 08:41:37;;;;;;;;;;;;;;;31.64;35.45;98518.98;1788603;80;20159;-83
2021/09/26 08:44:04;;;;;;;;;;;;;;;31.80;33.27;98514.33;1788300;80;20171;-83
2021/09/26 08:46:30;;;;;;;;;;;;;;;32.52;35.78;98518.20;1760641;80;20125;-83
2021/09/26 08:48:57;;;;;;;;;;;;;;;32.22;32.16;98516.03;1788180;80;20207;-84
2021/09/26 08:51:23;;;;;;;;;;;;;;;33.08;36.31;98514.06;1788819;80;21627;-83
2021/09/26 08:53:49;;;;;;;;;;;;;;;31.08;36.24;98515.17;1788148;80;20129;-83
2021/09/26 08:56:18;;;;;;;;;;;;;;;29.57;41.68;98512.15;1788559;80;20136;-83
2021/09/26 08:58:44;;;;;;;;;;;;;;;28.12;41.37;98521.14;1759813;80;20136;-82
2021/09/26 09:01:10;;;;;;;;;;;;;;;27.21;44.33;98519.70;1788129;80;20467;-84
2021/09/26 09:03:36;;;;;;;;;;;;;;;25.95;45.01;98518.11;1788434;80;21905;-82
2021/09/26 09:06:02;;;;;;;;;;;;;;;24.97;46.94;98516.52;1788106;80;20165;-82
2021/09/26 09:08:28;;;;;;;;;;;;;;;24.29;49.66;98516.89;1788455;80;20171;-82
2021/09/26 09:10:56;;;;;;;;;;;;;;;23.89;49.47;98513.12;1788284;80;20143;-82
2021/09/26 09:13:35;;;;;;;;;;;;;;;23.36;51.97;98511.06;1759929;80;20164;-83
2021/09/26 09:16:06;;;;;;;;;;;;;;;22.84;53.70;98513.05;1788400;80;21142;-82
2021/09/26 09:18:40;;;;;;;;;;;;;;;22.56;55.11;98504.67;1788417;80;20125;-82
2021/09/26 09:21:20;;;;;;;;;;;;;;;22.16;55.58;98508.95;1759563;80;20136;-82
2021/09/26 09:23:46;;;;;;;;;;;;;;;22.13;55.86;98504.12;1738625;80;20385;-82
2021/09/26 09:26:12;;;;;;;;;;;;;;;22.05;57.48;98507.77;1751491;82;20197;-82
2021/09/26 09:28:40;;;;;;;;;;;;;;;21.99;57.18;98506.38;1734906;82;21047;-82
2021/09/26 09:31:07;;;;;;;;;;;;;;;21.88;56.49;98501.08;1751381;82;20400;-82
2021/09/26 09:33:44;;;;;;;;;;;;;;;21.88;57.23;98500.50;1751515;82;20142;-83
2021/09/26 09:36:21;;;;;;;;;;;;;;;21.86;58.48;98496.45;1751457;82;20178;-82
2021/09/26 09:38:48;;;;;;;;;;;;;;;21.87;56.78;98491.97;1746536;82;20505;-82
2021/09/26 09:41:32;;;;;;;;;;;;;;;21.80;58.34;98494.52;1742179;81;21207;-82
2021/09/26 09:43:58;;;;;;;;;;;;;;;21.74;58.32;98491.73;1730313;81;20099;-82
2021/09/26 09:46:37;;;;;;;;;;;;;;;21.75;59.18;98490.58;1751744;82;20169;-82
2021/09/26 09:49:19;;;;;;;;;;;;;;;21.75;58.46;98490.58;1747417;82;20454;-82
2021/09/26 09:51:57;;;;;;;;;;;;;;;21.85;56.71;98490.13;1748368;82;20407;-82
2021/09/26 09:54:33;;;;;;;;;;;;;;;21.91;57.17;98488.77;1747926;81;21107;-82
2021/09/26 09:57:10;;;;;;;;;;;;;;;21.91;56.38;98496.25;1748348;82;20411;-82
2021/09/26 09:59:36;;;;;;;;;;;;;;;21.82;58.27;98493.59;1747933;81;20152;-82
2021/09/26 10:02:02;;;;;;;;;;;;;;;21.85;59.18;98485.20;1748319;81;20196;-81
2021/09/26 10:04:37;;;;;;;;;;;;;;;21.97;57.73;98483.84;1718501;82;20407;-81
2021/09/26 10:07:22;;;;;;;;;;;;;;;22.07;57.73;98481.20;1748213;81;21224;-83
2021/09/26 10:09:48;;;;;;;;;;;;;;;22.05;59.19;98477.97;1748125;82;20481;-82
2021/09/26 10:12:25;;;;;;;;;;;;;;;22.07;57.70;98475.69;1748408;82;20406;-82
2021/09/26 10:14:53;;;;;;;;;;;;;;;22.10;57.91;98478.58;1747469;82;20482;-83
2021/09/26 10:17:19;;;;;;;;;;;;;;;22.11;57.17;98480.19;1748305;81;20143;-81
2021/09/26 10:19:45;;;;;;;;;;;;;;;22.17;57.38;98481.58;1718431;82;20642;-81
2021/09/26 10:22:15;;;;;;;;;;;;;;;;;;1747606;81;20252;-83
2021/09/26 10:24:40;;;;;;;;;;;;;;;22.14;58.77;98479.52;1745413;82;20120;-82
2021/09/26 10:27:07;;;;;;;;;;;;;;;22.20;59.37;98478.12;1750877;81;20137;-81
2021/09/26 10:29:34;;;;;;;;;;;;;;;22.15;58.10;98478.37;1776880;81;20145;-82
2021/09/26 10:32:01;;;;;;;;;;;;;;;22.17;59.54;98473.88;1750571;81;20670;-83
2021/09/26 10:34:27;;;;;;;;;;;;;;;22.16;59.26;98473.08;1776843;81;20188;-81
2021/09/26 10:36:53;;;;;;;;;;;;;;;22.19;60.11;98473.75;1777097;80;20171;-82
2021/09/26 10:39:18;;;;;;;;;;;;;;;22.25;59.23;98475.72;1776916;79;20129;-83
2021/09/26 10:42:10;;;;;;;;;;;;;;;22.26;59.88;98471.80;1777069;81;20152;-81
2021/09/26 10:44:51;;;;;;;;;;;;;;;22.28;59.26;98472.26;1776822;81;21807;-83
2021/09/26 10:47:18;;;;;;;;;;;;;;;22.37;59.98;98470.75;1776432;81;20216;-83
2021/09/26 10:49:46;;;;;;;;;;;;;;;22.44;59.54;98466.84;1777126;81;20129;-82
2021/09/26 10:52:26;;;;;;;;;;;;;;;22.54;59.48;98463.60;1777353;81;20506;-83
2021/09/26 10:54:53;;;;;;;;;;;;;;;22.63;58.67;98458.75;1777006;81;20401;-82
2021/09/26 10:57:22;;;;;;;;;;;;;;;22.66;59.65;98461.41;1777307;81;21726;-82
2021/09/26 10:59:52;;;;;;;;;;;;;;;22.72;60.14;98458.61;1750898;81;20171;-81
2021/09/26 11:02:27;;;;;;;;;;;;;;;22.87;59.53;98469.55;1777499;81;20097;-81
2021/09/26 11:05:01;;;;;;;;;;;;;;;22.84;59.06;98461.94;1776909;81;20416;-82
2021/09/26 11:07:28;;;;;;;;;;;;;;;22.93;59.07;98462.05;1751070;81;20137;-83
2021/09/26 11:09:55;;;;;;;;;;;;;;;23.07;58.80;98461.09;1777006;81;21107;-81
2021/09/26 11:12:46;;;;;;;;;;;;;;;23.00;58.33;98452.59;1777091;81;20165;-83
2021/09/26 11:15:20;;;;;;;;;;;;;;;23.05;58.56;98457.85;1777092;81;20152;-83
2021/09/26 11:17:48;;;;;;;;;;;;;;;23.04;57.23;98454.86;1750912;81;20145;-83
2021/09/26 11:20:32;;;;;;;;;;;;;;;23.03;55.70;98453.84;1777110;80;20440;-83
2021/09/26 11:23:09;;;;;;;;;;;;;;;22.95;57.62;98456.97;1766774;80;21124;-82
2021/09/26 11:26:05;;;;;;;;;;;;;;;22.97;58.57;98454.66;1751825;82;20159;-81
2021/09/26 11:28:34;;;;;;;;;;;;;;;22.91;56.99;98453.31;1738406;82;20247;-81
2021/09/26 11:31:01;;;;;;;;;;;;;;;22.93;59.27;98444.67;1738223;81;20167;-82
2021/09/26 11:33:27;;;;;;;;;;;;;;;22.90;58.67;98439.28;1738520;82;20135;-82
2021/09/26 11:35:53;;;;;;;;;;;;;;;22.90;58.96;98432.92;1687719;82;21102;-81
2021/09/26 11:38:19;;;;;;;;;;;;;;;22.87;56.81;98435.02;1738346;82;20229;-81
2021/09/26 11:40:53;;;;;;;;;;;;;;;22.83;56.08;98431.33;1738333;81;20200;-83
2021/09/26 11:43:28;;;;;;;;;;;;;;;22.75;54.07;98427.55;1738433;82;20171;-83
2021/09/26 11:45:55;;;;;;;;;;;;;;;22.77;56.74;98432.14;1738423;81;20184;-83
2021/09/26 11:48:29;;;;;;;;;;;;;;;22.79;56.86;98427.86;1711413;82;21891;-81
2021/09/26 11:50:55;;;;;;;;;;;;;;;22.83;56.86;98425.80;1738181;81;20168;-82
2021/09/26 11:53:21;;;;;;;;;;;;;;;22.88;57.41;98425.57;1738203;82;20198;-82
2021/09/26 11:55:47;;;;;;;;;;;;;;;22.80;60.42;98421.77;1711269;82;20362;-82
2021/09/26 11:58:13;;;;;;;;;;;;;;;22.91;60.18;98422.13;1739030;82;20186;-81
2021/09/26 12:00:40;;;;;;;;;;;;;;;22.92;59.99;98425.11;1738255;81;21098;-81
2021/09/26 12:03:29;;;;;;;;;;;;;;;22.91;60.03;98424.31;1738540;82;20200;-81
2021/09/26 12:05:54;;;;;;;;;;;;;;;22.83;59.28;98417.52;1738411;81;20194;-82
2021/09/26 12:08:21;;;;;;;;;;;;;;;22.75;58.41;98420.06;1738317;82;20162;-82
2021/09/26 12:10:49;;;;;;;;;;;;;;;22.77;58.16;98418.33;1738669;81;20172;-81
2021/09/26 12:13:19;;;;;;;;;;;;;;;22.66;57.81;98415.84;1711866;82;20790;-83
2021/09/26 12:15:45;;;;;;;;;;;;;;;22.63;58.63;98413.76;1738386;81;20180;-81
2021/09/26 12:18:22;;;;;;;;;;;;;;;22.57;58.73;98416.56;1738633;82;20214;-83
2021/09/26 12:20:48;;;;;;;;;;;;;;;22.57;58.61;98415.17;1738347;81;20218;-82
2021/09/26 12:23:24;;;;;;;;;;;;;;;22.66;58.51;98407.56;1743301;81;20143;-82
2021/09/26 12:26:02;;;;;;;;;;;;;;;22.70;58.95;98412.02;1751318;82;21112;-83
2021/09/26 12:28:27;;;;;;;;;;;;;;;22.79;58.09;98412.67;1751368;82;20163;-81
2021/09/26 12:30:55;;;;;;;;;;;;;;;22.92;58.61;98407.16;1751354;82;20185;-81
2021/09/26 12:33:41;;;;;;;;;;;;;;;22.93;58.34;98406.80;1751521;82;20534;-82
2021/09/26 12:36:08;;;;;;;;;;;;;;;22.83;57.62;98400.36;1751254;82;20143;-81
2021/09/26 12:38:43;;;;;;;;;;;;;;;22.78;58.30;98398.64;1751566;82;21111;-81
2021/09/26 12:41:21;;;;;;;;;;;;;;;22.84;58.78;98392.30;1750099;82;20167;-82
2021/09/26 12:43:53;;;;;;;;;;;;;;;22.88;58.41;98396.56;1751374;82;20156;-81
2021/09/26 12:46:20;;;;;;;;;;;;;;;22.91;58.64;98402.20;1751461;82;20399;-81
2021/09/26 12:48:46;;;;;;;;;;;;;;;22.87;58.28;98400.48;1751729;82;20202;-81
2021/09/26 12:51:16;;;;;;;;;;;;;;;22.76;58.13;98402.34;1750872;82;21055;-83
2021/09/26 12:53:44;;;;;;;;;;;;;;;22.71;58.26;98402.57;1750753;82;20158;-83